EmailTwitter


Observations de surface / Québec / LFRB

Régions: Québec | Canada | États-Unis | Europe | France | UK | Ailleurs
Station
Affichage
Infos & localisation pour LFRB | Aide pour décoder les METARs

Observations prises le 2017-09-19 à 13H00 UTC à BREST/GUIPAVAS, FR (LFRB)

Etat du ciel: couvert.

Température: 16.0 Celsius

Point de rosée: 10.0 Celsius

Humidité relative: 68%

Vents: Ouest à 13 km/h ou 7 noeuds.

Pression au niveau moyen de la mer: 102.40 kilopascals.

Visibilité horizontale: 6.21 milles terrestres ou 9.94 kilomètres.

Hauteur du plafond: 884 mètres ( 2900 pieds ).

Observation METAR:

LFRB 191300Z AUTO 27007KT 9999 BKN029 BKN037 OVC048 16/10 Q1024 NOSIG=